NEODyS-2

Near Earth Objects - Dynamic Site
NEODyS ∴ Observatories ∴ Site 691 ∴ Obs & residuals
Contact »
691  ▹ 
OBSERVATIONS AND RESIDUALS

691-Steward Observatory, Kitt Peak-Spacewatch

Detections | Residuals | Detections & Residuals

[1-200] [201-400] [401-600] [601-800] [801-1000] [1001-1200] [1201-1400] [1401-1600] [1601-1800] [1801-2000] [2001-2200] [2201-2400] [2401-2600] [2601-2800] [2801-3000] [3001-3200] [3201-3400] [3401-3600] [3601-3800] [3801-4000] [4001-4200] [4201-4400] [4401-4600] [4601-4800] [4801-5000] [5001-5200] [5201-5400] [5401-5600] [5601-5800] [5801-6000] [6001-6200] [6201-6400] [6401-6600] [6601-6800] [6801-7000] [7001-7200] [7201-7400] [7401-7600] [7601-7800] [7801-8000] [8001-8200] [8201-8400] [8401-8600] [8601-8800] [8801-9000] [9001-9200] [9201-9400] [9401-9600] [9601-9800] [9801-10000] [10001-10200] [10201-10400] [10401-10600] [10601-10800] [10801-11000] [11001-11200] [11201-11400] [11401-11600] [11601-11800] [11801-12000] [12001-12200] [12201-12400] [12401-12600] [12601-12800] [12801-13000] [13001-13200] [13201-13400] [13401-13600] [13601-13800] [13801-14000] [14001-14200] [14201-14400] [14401-14600] [14601-14800] [14801-15000] [15001-15200] [15201-15400] [15401-15600] [15601-15800] [15801-16000] [16001-16200] [16201-16400] [16401-16600] [16601-16800] [16801-17000] [17001-17200] [17201-17400] [17401-17600] [17601-17800] [17801-18000] [18001-18200] [18201-18400] [18401-18600] [18601-18800] [18801-19000] [19001-19200] [19201-19400] [19401-19600] [19601-19800] [19801-20000] [20001-20200] [20201-20400] [20401-20600] [20601-20800] [20801-21000] [21001-21200] [21201-21400] [21401-21600] [21601-21800] [21801-22000] [22001-22200] [22201-22400] [22401-22600] [22601-22800] [22801-23000] [23001-23200] [23201-23400] [23401-23600] [23601-23800] [23801-24000] [24001-24200] [24201-24400] [24401-24600] [24601-24800] [24801-25000] [25001-25200] [25201-25400] [25401-25600] [25601-25800] [25801-26000] [26001-26200] [26201-26400] [26401-26600] [26601-26800] [26801-27000] [27001-27200] [27201-27400] [27401-27600] [27601-27800] [27801-28000] [28001-28200] [28201-28400] [28401-28600] [28601-28800] [28801-29000] [29001-29200] [29201-29400] [29401-29600] [29601-29800] [29801-30000] [30001-30200] [30201-30400] [30401-30600] [30601-30800] [30801-31000] [31001-31200] [31201-31400] [31401-31600] [31601-31800] [31801-32000] [32001-32200] [32201-32400] [32401-32600] [32601-32800] [32801-33000] [33001-33200] [33201-33400] [33401-33600] [33601-33800] [33801-34000] [34001-34200] [34201-34400] [34401-34600] [34601-34800] [34801-35000] [35001-35200] [35201-35400] [35401-35600] [35601-35800] [35801-36000] [36001-36200] [36201-36400] [36401-36600] [36601-36800] [36801-37000] [37001-37200] [37201-37400] [37401-37600] [37601-37800] [37801-38000] [38001-38200] [38201-38400] [38401-38600] [38601-38800] [38801-39000] [39001-39200] [39201-39400] [39401-39600] [39601-39800] [39801-40000] [40001-40200] [40201-40400] [40401-40600] [40601-40800] [40801-41000] [41001-41200] [41201-41400] [41401-41600] [41601-41800] [41801-42000] [42001-42200] [42201-42400] [42401-42600] [42601-42800] [42801-43000] [43001-43200] [43201-43400] [43401-43600] [43601-43800] [43801-44000] [44001-44200] [44201-44400] [44401-44600] [44601-44800] [44801-45000] [45001-45200] [45201-45400] [45401-45600] [45601-45800] [45801-46000] [46001-46200] [46201-46400] [46401-46600] [46601-46800] [46801-47000] [47001-47200] [47201-47400] [47401-47600] [47601-47800] [47801-48000] [48001-48200] [48201-48400] [48401-48600] [48601-48800] [48801-49000] [49001-49200] [49201-49400] [49401-49600] [49601-49800] [49801-50000] [50001-50200] [50201-50388]

Designation T Tech N Date Right Ascension Declination Apparent Magnitude Star Catalog Site code χ Used A Used M
yr-mo-day precision hr:min:sec precision rms F bias residual deg min sec precision rms F bias residual mag/col rms residual
2017FV64 O C K 2017-04-02.30942 1.000E-05 11:51:35.000 1.500E-01 0.500 F 0.196 0.370 -00° 12' 03.50" 1.000E-01 0.500 F 0.155 -3.083 o 691 5.09 No No
2017FV64 O C K 2017-04-02.32675 1.000E-05 11:51:36.190 1.500E-01 0.500 F 0.196 -0.045 -00° 10' 44.50" 1.000E-01 0.500 F 0.155 0.660 20.2 R 0.70 -1.16 o 691 1.86 Yes Yes
2017FV64 O C K 2017-04-02.34398 1.000E-05 11:51:37.400 1.500E-01 0.500 F 0.196 -0.261 -00° 09' 31.00" 1.000E-01 0.500 F 0.155 -0.634 o 691 1.94 Yes No
2017FX2 O C 2017-04-02.35644 1.000E-05 12:27:59.830 1.500E-01 0.500 F 0.232 0.045 -14° 13' 26.60" 1.000E-01 0.500 F -0.007 0.046 20.5 V 0.70 -0.36 o 691 0.13 Yes Yes
2017FY90 O C H 2017-04-02.36214 1.000E-05 12:27:00.430 1.500E-01 0.500 F 0.117 0.306 -03° 30' 59.60" 1.000E-01 0.500 F 0.220 0.861 o 691 1.89 Yes No
2017FX2 O C 2017-04-02.36420 1.000E-05 12:28:00.970 1.500E-01 0.500 F 0.232 0.460 -14° 13' 53.00" 1.000E-01 0.500 F -0.007 0.041 20.6 V 0.70 -0.26 o 691 0.94 Yes Yes
2017FX2 O C 2017-04-02.37198 1.000E-05 12:28:02.000 1.500E-01 0.500 F 0.232 -0.875 -14° 14' 18.70" 1.000E-01 0.500 F -0.007 0.746 21.2 V 0.70 0.34 o 691 2.33 Yes Yes
2017FY90 O C H 2017-04-02.37769 1.000E-05 12:27:00.040 1.500E-01 0.500 F 0.117 -0.355 -03° 33' 04.30" 1.000E-01 0.500 F 0.220 -0.041 o 691 0.74 Yes No
2017GM4 O C 2017-04-02.40615 1.000E-05 12:42:07.060 1.500E-01 0.500 F 0.426 -0.253 -11° 00' 46.30" 1.000E-01 0.500 F 0.174 -0.178 19.5 V 0.70 0.41 o 691 0.62 Yes Yes
2017GO4 O C 2017-04-02.40810 1.000E-05 12:42:23.270 1.500E-01 0.500 F 0.258 -0.285 -13° 14' 50.50" 1.000E-01 0.500 F 0.097 0.260 19.7 V 0.70 0.06 o 691 0.78 Yes Yes
2017GM4 O C 2017-04-02.41736 1.000E-05 12:42:05.490 1.500E-01 0.500 F 0.426 -0.682 -11° 00' 34.70" 1.000E-01 0.500 F 0.174 -0.233 19.5 V 0.70 0.41 o 691 1.44 Yes Yes
2017GO4 O C 2017-04-02.41932 1.000E-05 12:42:20.520 1.500E-01 0.500 F 0.258 -0.084 -13° 13' 30.70" 1.000E-01 0.500 F 0.097 0.690 19.7 V 0.70 0.06 o 691 1.40 Yes Yes
2017GM4 O C 2017-04-02.42857 1.000E-05 12:42:03.980 1.500E-01 0.500 F 0.426 -0.327 -11° 00' 23.00" 1.000E-01 0.500 F 0.174 -0.236 19.3 V 0.70 0.21 o 691 0.81 Yes Yes
2017GO4 O C 2017-04-02.43053 1.000E-05 12:42:17.760 1.500E-01 0.500 F 0.258 -0.434 -13° 12' 11.30" 1.000E-01 0.500 F 0.097 0.586 19.8 V 0.70 0.17 o 691 1.47 Yes Yes
2017FO91 O C K 2017-04-02.43382 1.000E-05 13:21:21.190 1.500E-01 0.500 F 0.170 0.099 +08° 31' 31.30" 1.000E-01 0.500 F 0.091 0.184 20.6 R 0.70 0.39 o 691 0.45 Yes Yes
2017FM63 O C K 2017-04-02.43711 1.000E-05 13:11:25.120 1.500E-01 0.500 F 0.162 -0.262 +07° 09' 47.20" 1.000E-01 0.500 F 0.267 0.003 20.6 R 0.70 -0.36 o 691 0.53 Yes Yes
2017EW2 O C H 2017-04-02.44405 1.000E-05 13:26:16.140 1.500E-01 0.500 F 0.164 -0.759 +13° 41' 28.50" 1.000E-01 0.500 F 0.137 -0.768 21.3 R 0.70 0.65 o 691 2.16 Yes Yes
Orthos O C 2017-04-02.44405 1.000E-05 13:27:23.750 1.500E-01 0.500 F 0.124 -0.189 +13° 09' 23.80" 1.000E-01 0.500 F 0.096 0.050 17.2 V 0.70 0.37 o 691 0.39 Yes Yes
2017FO91 O C K 2017-04-02.44605 1.000E-05 13:21:23.970 1.500E-01 0.500 F 0.170 -0.250 +08° 33' 35.90" 1.000E-01 0.500 F 0.091 0.556 20.4 R 0.70 0.19 o 691 1.26 Yes Yes
2017FM63 O C K 2017-04-02.44935 1.000E-05 13:11:27.440 1.500E-01 0.500 F 0.162 0.290 +07° 09' 25.00" 1.000E-01 0.500 F 0.267 0.234 o 691 0.76 Yes No
2017EW2 O C H 2017-04-02.45628 1.000E-05 13:26:16.870 1.500E-01 0.500 F 0.164 -0.502 +13° 40' 47.50" 1.000E-01 0.500 F 0.137 0.097 20.9 R 0.70 0.25 o 691 1.03 Yes Yes
Orthos O C 2017-04-02.45628 1.000E-05 13:27:22.910 1.500E-01 0.500 F 0.124 -0.166 +13° 09' 42.70" 1.000E-01 0.500 F 0.096 0.001 17.1 V 0.70 0.27 o 691 0.33 Yes Yes
2017FO91 O C K 2017-04-02.45828 1.000E-05 13:21:26.780 1.500E-01 0.500 F 0.170 -0.512 +08° 35' 37.40" 1.000E-01 0.500 F 0.091 -2.083 20.2 R 0.70 -0.02 o 691 4.08 No Yes
2017FM63 O C K 2017-04-02.46156 1.000E-05 13:11:29.710 1.500E-01 0.500 F 0.162 0.001 +07° 09' 03.00" 1.000E-01 0.500 F 0.267 0.643 o 691 1.30 Yes No
2017EW2 O C H 2017-04-02.46849 1.000E-05 13:26:17.590 1.500E-01 0.500 F 0.164 -0.523 +13° 40' 07.50" 1.000E-01 0.500 F 0.137 1.935 20.3 R 0.70 -0.35 o 691 4.00 No Yes
Orthos O C 2017-04-02.46849 1.000E-05 13:27:22.070 1.500E-01 0.500 F 0.124 -0.186 +13° 10' 01.70" 1.000E-01 0.500 F 0.096 0.089 17.2 V 0.70 0.37 o 691 0.41 Yes Yes
2017FP64 O C H 2017-04-03.11468 1.000E-05 07:43:14.660 1.500E-01 0.500 F 0.014 0.234 +10° 39' 23.70" 1.000E-01 0.500 F 0.152 -0.005 20.5 R 0.70 0.89 o 691 0.47 Yes Yes
2017FP64 O C H 2017-04-03.12437 1.000E-05 07:43:16.200 1.500E-01 0.500 F 0.014 0.113 +10° 39' 36.40" 1.000E-01 0.500 F 0.152 0.257 20.2 R 0.70 0.59 o 691 0.56 Yes Yes
2017FP64 O C H 2017-04-03.13403 1.000E-05 07:43:17.760 1.500E-01 0.500 F 0.014 0.347 +10° 39' 48.60" 1.000E-01 0.500 F 0.152 0.067 20.7 R 0.70 1.09 o 691 0.71 Yes Yes
2017CS O C 2017-04-03.16599 1.000E-05 09:40:26.800 1.500E-01 0.500 F 0.160 -0.154 -13° 26' 33.70" 1.000E-01 0.500 F -0.013 -0.160 19.0 V 0.70 0.09 o 691 0.44 Yes Yes
2014NB39 O C K 2017-04-03.17389 1.000E-05 09:38:58.670 1.500E-01 0.500 F 0.224 -0.055 -11° 17' 21.00" 1.000E-01 0.500 F 0.026 -0.469 o 691 0.95 Yes No
2017CS O C 2017-04-03.18528 1.000E-05 09:40:25.180 1.500E-01 0.500 F 0.160 -0.201 -13° 26' 28.20" 1.000E-01 0.500 F -0.013 -0.138 19.0 V 0.70 0.09 o 691 0.49 Yes Yes
2014NB39 O C K 2017-04-03.19315 1.000E-05 09:38:59.050 1.500E-01 0.500 F 0.224 -0.026 -11° 16' 51.30" 1.000E-01 0.500 F 0.026 0.253 21.0 R 0.70 -0.42 o 691 0.51 Yes Yes
2017CS O C 2017-04-03.20452 1.000E-05 09:40:23.560 1.500E-01 0.500 F 0.160 -0.329 -13° 26' 22.80" 1.000E-01 0.500 F -0.013 -0.303 18.8 V 0.70 -0.11 o 691 0.90 Yes Yes
2014NB39 O C K 2017-04-03.21240 1.000E-05 09:38:59.430 1.500E-01 0.500 F 0.224 -0.016 -11° 16' 22.50" 1.000E-01 0.500 F 0.026 0.082 20.7 R 0.70 -0.72 o 691 0.17 Yes Yes
2017FD157 O C K 2017-04-03.22563 1.000E-05 09:05:20.580 1.500E-01 0.500 F -0.011 1.764 +28° 13' 22.50" 1.000E-01 0.500 F 0.364 0.207 19.4 R 0.70 -0.95 o 691 3.32 No Yes
2017FD157 O C K 2017-04-03.23084 1.000E-05 09:05:23.310 1.500E-01 0.500 F -0.011 1.985 +28° 13' 17.20" 1.000E-01 0.500 F 0.364 -0.255 19.6 R 0.70 -0.75 o 691 3.74 No Yes
2017FD157 O C K 2017-04-03.23605 1.000E-05 09:05:25.940 1.500E-01 0.500 F -0.011 0.878 +28° 13' 12.10" 1.000E-01 0.500 F 0.364 -0.497 19.1 R 0.70 -1.25 o 691 2.16 Yes Yes
2017GK4 O C 2017-04-03.25546 1.000E-05 11:25:36.000 1.500E-01 0.500 F 0.267 0.017 -20° 19' 02.90" 1.000E-01 0.500 F -0.050 -0.088 19.4 V 0.70 0.24 o 691 0.18 Yes Yes
2017GK4 O C 2017-04-03.26831 1.000E-05 11:25:33.750 1.500E-01 0.500 F 0.267 -0.070 -20° 18' 09.30" 1.000E-01 0.500 F -0.050 -0.204 19.9 V 0.70 0.74 o 691 0.43 Yes Yes
2017GK4 O C 2017-04-03.28117 1.000E-05 11:25:31.500 1.500E-01 0.500 F 0.267 -0.140 -20° 17' 15.10" 1.000E-01 0.500 F -0.050 0.081 19.5 V 0.70 0.34 o 691 0.32 Yes Yes
2017GJ4 O C K 2017-04-03.29417 1.000E-05 11:44:38.930 1.500E-01 0.500 F 0.223 0.797 -16° 14' 51.10" 1.000E-01 0.500 F 0.086 0.393 20.3 R 0.70 -0.48 o 691 1.90 Yes Yes
2017GJ4 O C K 2017-04-03.32480 1.000E-05 11:44:46.850 1.500E-01 0.500 F 0.223 -0.115 -16° 13' 30.20" 1.000E-01 0.500 F 0.086 -0.078 20.8 R 0.70 0.01 o 691 0.30 Yes Yes
2017GH4 O C H 2017-04-03.33259 1.000E-05 12:02:47.930 1.500E-01 0.500 F 0.275 -0.145 -16° 41' 49.90" 1.000E-01 0.500 F 0.032 0.057 20.0 R 0.70 0.11 o 691 0.33 Yes Yes
2017FY O C H 2017-04-03.33479 1.000E-05 12:04:13.550 1.500E-01 0.500 F 0.197 -0.078 +08° 35' 35.70" 1.000E-01 0.500 F 0.053 -0.287 20.6 R 0.70 0.24 o 691 0.61 Yes Yes
2017GH4 O C H 2017-04-03.34027 1.000E-05 12:02:52.080 1.500E-01 0.500 F 0.275 -0.062 -16° 41' 23.30" 1.000E-01 0.500 F 0.032 -0.164 20.5 R 0.70 0.61 o 691 0.37 Yes Yes
2017FY O C H 2017-04-03.34242 1.000E-05 12:04:16.070 1.500E-01 0.500 F 0.197 0.519 +08° 35' 23.90" 1.000E-01 0.500 F 0.053 0.038 20.8 R 0.70 0.44 o 691 1.06 Yes Yes
2017GH4 O C H 2017-04-03.34789 1.000E-05 12:02:56.220 1.500E-01 0.500 F 0.275 0.355 -16° 40' 56.70" 1.000E-01 0.500 F 0.032 -0.206 20.4 R 0.70 0.51 o 691 0.87 Yes Yes
2017FY O C H 2017-04-03.35006 1.000E-05 12:04:18.500 1.500E-01 0.500 F 0.197 -0.312 +08° 35' 11.70" 1.000E-01 0.500 F 0.053 0.000 20.7 R 0.70 0.34 o 691 0.64 Yes Yes
2017FS102 O C H 2017-04-03.35582 1.000E-05 12:27:28.460 1.500E-01 0.500 F 0.101 -1.025 +10° 02' 54.30" 1.000E-01 0.500 F 0.294 0.509 20.9 R 0.70 1.08 o 691 2.47 Yes Yes
2017FY90 O C H 2017-04-03.35731 1.000E-05 12:27:05.350 1.500E-01 0.500 F 0.122 -0.690 -05° 38' 49.00" 1.000E-01 0.500 F 0.104 0.927 20.7 R 0.70 0.95 o 691 2.38 Yes Yes
2017FS102 O C H 2017-04-03.36163 1.000E-05 12:27:36.380 1.500E-01 0.500 F 0.101 2.362 +10° 02' 03.50" 1.000E-01 0.500 F 0.294 1.308 o 691 4.91 No No
2017FY90 O C H 2017-04-03.36307 1.000E-05 12:27:05.240 1.500E-01 0.500 F 0.122 -0.514 -05° 39' 32.20" 1.000E-01 0.500 F 0.104 0.470 20.3 R 0.70 0.55 o 691 1.44 Yes Yes
2017FS102 O C H 2017-04-03.36739 1.000E-05 12:27:43.910 1.500E-01 0.500 F 0.101 0.696 +10° 01' 10.70" 1.000E-01 0.500 F 0.294 -0.205 20.1 R 0.70 0.29 o 691 1.61 Yes Yes
2017FY90 O C H 2017-04-03.36882 1.000E-05 12:27:05.170 1.500E-01 0.500 F 0.122 0.218 -05° 40' 15.30" 1.000E-01 0.500 F 0.104 0.013 20.4 R 0.70 0.65 o 691 0.45 Yes Yes
2017GO4 O C H 2017-04-03.41888 1.000E-05 12:38:48.920 1.500E-01 0.612 F 0.392 -0.066 -11° 11' 01.50" 1.000E-01 0.612 F 0.179 0.172 19.3 R 0.70 0.26 o 691 0.30 Yes Yes
2017GO4 O C 2017-04-03.42079 1.000E-05 12:38:48.410 1.500E-01 0.612 F 0.392 -0.160 -11° 10' 46.50" 1.000E-01 0.612 F 0.179 0.152 19.7 V 0.70 0.26 o 691 0.36 Yes Yes
2017FO2 O C 2017-04-03.42334 1.000E-05 12:36:23.910 1.500E-01 0.500 F 0.308 -0.014 +07° 21' 31.90" 1.000E-01 0.500 F 0.173 -0.022 20.7 V 0.70 0.38 o 691 0.05 Yes Yes
2017GO4 O C H 2017-04-03.42535 1.000E-05 12:38:47.230 1.500E-01 0.612 F 0.392 0.120 -11° 10' 10.80" 1.000E-01 0.612 F 0.179 -0.033 19.2 R 0.70 0.16 o 691 0.21 Yes Yes
2017GM4 O C H 2017-04-03.42727 1.000E-05 12:39:53.440 1.500E-01 0.500 F 0.426 0.095 -10° 42' 24.20" 1.000E-01 0.500 F 0.174 0.046 18.7 R 0.70 0.16 o 691 0.21 Yes Yes
2017GO4 O C 2017-04-03.42727 1.000E-05 12:38:46.690 1.500E-01 0.612 F 0.392 -0.418 -11° 09' 55.30" 1.000E-01 0.612 F 0.179 0.348 19.6 V 0.70 0.16 o 691 0.90 Yes Yes
2017FO2 O C 2017-04-03.42965 1.000E-05 12:36:23.540 1.500E-01 0.500 F 0.308 0.177 +07° 21' 17.10" 1.000E-01 0.500 F 0.173 0.182 20.4 V 0.70 0.08 o 691 0.51 Yes Yes
2017GO4 O C H 2017-04-03.43165 1.000E-05 12:38:45.580 1.500E-01 0.612 F 0.392 0.101 -11° 09' 20.50" 1.000E-01 0.612 F 0.179 0.636 19.4 R 0.70 0.36 o 691 1.06 Yes Yes
2017GM4 O C H 2017-04-03.43357 1.000E-05 12:39:52.480 1.500E-01 0.500 F 0.426 -0.037 -10° 42' 16.70" 1.000E-01 0.500 F 0.174 0.067 18.8 R 0.70 0.26 o 691 0.15 Yes Yes
2017GO4 O C 2017-04-03.43357 1.000E-05 12:38:45.060 1.500E-01 0.612 F 0.392 -0.184 -11° 09' 05.60" 1.000E-01 0.612 F 0.179 0.399 19.8 V 0.70 0.36 o 691 0.72 Yes Yes
2017FO2 O C 2017-04-03.43594 1.000E-05 12:36:23.160 1.500E-01 0.500 F 0.308 0.173 +07° 21' 02.30" 1.000E-01 0.500 F 0.173 0.343 20.3 V 0.70 -0.02 o 691 0.78 Yes Yes
2017FE3 O C H 2017-04-03.44911 1.000E-05 15:40:22.550 1.500E-01 0.500 F 0.093 0.023 +02° 58' 30.00" 1.000E-01 0.500 F 0.154 0.365 19.2 R 0.70 -0.10 o 691 0.77 Yes Yes
2017FP91 O C K 2017-04-03.45109 1.000E-05 15:36:08.300 1.500E-01 0.500 F 0.065 -0.808 -04° 36' 39.50" 1.000E-01 0.500 F 0.158 -0.758 o 691 2.39 Yes No
2017FE3 O C H 2017-04-03.46267 1.000E-05 15:40:32.190 1.500E-01 0.500 F 0.093 -0.252 +03° 00' 17.60" 1.000E-01 0.500 F 0.154 -0.103 19.1 R 0.70 -0.20 o 691 0.59 Yes Yes
2017FP91 O C K 2017-04-03.46464 1.000E-05 15:36:09.140 1.500E-01 0.500 F 0.065 0.209 -04° 35' 53.90" 1.000E-01 0.500 F 0.158 -0.266 21.4 R 0.70 0.48 o 691 0.73 Yes Yes
2017FE3 O C H 2017-04-03.47622 1.000E-05 15:40:41.850 1.500E-01 0.500 F 0.093 -0.336 +03° 02' 05.70" 1.000E-01 0.500 F 0.154 -0.021 19.3 R 0.70 0.00 o 691 0.72 Yes Yes
2017FP91 O C K 2017-04-03.47821 1.000E-05 15:36:09.920 1.500E-01 0.500 F 0.065 0.152 -04° 35' 07.30" 1.000E-01 0.500 F 0.158 1.138 21.4 R 0.70 0.47 o 691 2.49 Yes Yes
2010GA7 O C 2017-04-03.48795 1.000E-05 14:55:30.930 1.500E-01 0.500 F 0.336 -0.174 -05° 02' 51.30" 1.000E-01 0.500 F 0.086 -0.063 19.1 V 0.70 -0.09 o 691 0.37 Yes Yes
2017FN90 O C H 2017-04-03.49019 1.000E-05 15:31:16.230 1.500E-01 0.500 F 0.269 0.290 +15° 51' 18.00" 1.000E-01 0.500 F 0.211 0.353 21.0 R 0.70 0.73 o 691 0.93 Yes Yes
2010GA7 O C 2017-04-03.49725 1.000E-05 14:55:25.700 1.500E-01 0.500 F 0.336 0.103 -05° 03' 30.40" 1.000E-01 0.500 F 0.086 -0.266 19.4 V 0.70 0.21 o 691 0.58 Yes Yes
2017FN90 O C H 2017-04-03.49942 1.000E-05 15:31:14.780 1.500E-01 0.500 F 0.269 -0.077 +15° 51' 21.20" 1.000E-01 0.500 F 0.211 -0.061 o 691 0.20 Yes No
2010GA7 O C 2017-04-03.50648 1.000E-05 14:55:20.530 1.500E-01 0.500 F 0.336 0.631 -05° 04' 09.20" 1.000E-01 0.500 F 0.086 -0.468 19.4 V 0.70 0.21 o 691 1.59 Yes Yes
2017FN90 O C H 2017-04-03.50865 1.000E-05 15:31:13.390 1.500E-01 0.500 F 0.269 0.359 +15° 51' 25.10" 1.000E-01 0.500 F 0.211 0.260 o 691 0.90 Yes No
2000HO14 O C 2017-04-04.41897 1.000E-05 12:33:16.200 1.500E-01 0.500 F 0.393 -0.131 -09° 43' 37.70" 1.000E-01 0.500 F 0.138 0.182 19.6 V 0.70 0.72 o 691 0.45 Yes Yes
2017GO4 O C 2017-04-04.41897 1.000E-05 12:34:58.410 1.500E-01 0.500 F 0.376 -0.393 -08° 54' 36.60" 1.000E-01 0.500 F 0.114 0.154 19.7 V 0.70 0.42 o 691 0.87 Yes Yes
2000HO14 O C 2017-04-04.43037 1.000E-05 12:33:15.550 1.500E-01 0.500 F 0.393 0.881 -09° 43' 29.60" 1.000E-01 0.500 F 0.138 0.348 19.3 V 0.70 0.42 o 691 1.90 Yes Yes
2017GO4 O C 2017-04-04.43037 1.000E-05 12:34:55.240 1.500E-01 0.500 F 0.376 0.403 -08° 52' 57.50" 1.000E-01 0.500 F 0.114 -0.303 19.5 V 0.70 0.22 o 691 1.04 Yes Yes
2000HO14 O C 2017-04-04.44175 1.000E-05 12:33:14.770 1.500E-01 0.500 F 0.393 -0.091 -09° 43' 21.70" 1.000E-01 0.500 F 0.138 0.318 19.5 V 0.70 0.62 o 691 0.66 Yes Yes
2017GO4 O C 2017-04-04.44175 1.000E-05 12:34:52.030 1.500E-01 0.500 F 0.376 0.031 -08° 51' 17.40" 1.000E-01 0.500 F 0.114 0.224 20.0 V 0.70 0.72 o 691 0.45 Yes Yes
2016VV3 O C H 2017-04-04.44624 1.000E-05 12:58:05.660 1.500E-01 0.500 F 0.119 0.405 +04° 09' 26.50" 1.000E-01 0.500 F 0.250 -0.652 20.6 R 0.70 0.16 o 691 1.54 Yes Yes
2016VV3 O C H 2017-04-04.45675 1.000E-05 12:58:04.830 1.500E-01 0.500 F 0.119 -0.380 +04° 09' 28.10" 1.000E-01 0.500 F 0.250 -0.112 21.0 R 0.70 0.56 o 691 0.80 Yes Yes
2016VV3 O C H 2017-04-04.46727 1.000E-05 12:58:04.090 1.500E-01 0.500 F 0.119 0.158 +04° 09' 29.80" 1.000E-01 0.500 F 0.250 0.529 21.1 R 0.70 0.66 o 691 1.11 Yes Yes
2017GS4 O C 2017-04-04.48764 1.000E-05 15:34:42.810 1.500E-01 0.500 F 0.103 0.217 +30° 11' 54.60" 1.000E-01 0.500 F 0.254 0.345 20.5 V 0.70 0.53 o 691 0.84 Yes Yes
2017GS4 O C 2017-04-04.49741 1.000E-05 15:34:40.400 1.500E-01 0.500 F 0.103 -0.075 +30° 11' 45.20" 1.000E-01 0.500 F 0.254 0.152 20.3 V 0.70 0.33 o 691 0.35 Yes Yes
2017GS4 O C 2017-04-04.50700 1.000E-05 15:34:38.060 1.500E-01 0.500 F 0.103 -0.060 +30° 11' 35.90" 1.000E-01 0.500 F 0.254 -0.079 20.3 V 0.70 0.33 o 691 0.20 Yes Yes
2017AP20 O C K 2017-04-05.12553 1.000E-05 11:53:56.370 1.500E-01 0.500 F 0.168 -0.287 +23° 39' 58.30" 1.000E-01 0.500 F 0.192 0.125 19.7 R 0.70 -0.50 o 691 0.63 Yes Yes
2017AP20 O C K 2017-04-05.13785 1.000E-05 11:53:55.370 1.500E-01 0.500 F 0.168 -0.279 +23° 39' 52.60" 1.000E-01 0.500 F 0.192 -0.199 19.5 R 0.70 -0.70 o 691 0.69 Yes Yes
2017FL90 O C K 2017-04-05.14464 1.000E-05 12:38:39.950 1.500E-01 0.500 F 0.194 -0.200 +26° 49' 32.30" 1.000E-01 0.500 F 0.141 -0.782 19.7 R 0.70 -0.49 o 691 1.63 Yes Yes
2017AP20 O C K 2017-04-05.15014 1.000E-05 11:53:54.380 1.500E-01 0.500 F 0.168 -0.144 +23° 39' 47.40" 1.000E-01 0.500 F 0.192 -0.023 19.6 R 0.70 -0.60 o 691 0.29 Yes Yes
2017FL90 O C K 2017-04-05.15694 1.000E-05 12:38:37.210 1.500E-01 0.500 F 0.194 -0.858 +26° 50' 23.60" 1.000E-01 0.500 F 0.141 0.656 19.7 R 0.70 -0.48 o 691 2.19 Yes Yes
2017FE101 O C K 2017-04-05.22125 1.000E-05 12:08:56.110 1.500E-01 0.500 F 0.343 -0.263 +03° 12' 35.30" 1.000E-01 0.500 F 0.182 0.257 o 691 0.74 Yes No
2016VV3 O C K 2017-04-05.22793 1.000E-05 12:57:11.010 1.500E-01 0.500 F 0.119 0.030 +04° 10' 44.30" 1.000E-01 0.500 F 0.250 -0.242 20.8 R 0.70 0.33 o 691 0.49 Yes Yes
2017FE101 O C K 2017-04-05.24378 1.000E-05 12:08:53.910 1.500E-01 0.500 F 0.343 1.639 +03° 13' 39.00" 1.000E-01 0.500 F 0.182 -2.983 o 691 6.78 No No
2016VV3 O C K 2017-04-05.25029 1.000E-05 12:57:09.310 1.500E-01 0.500 F 0.119 -0.715 +04° 10' 46.60" 1.000E-01 0.500 F 0.250 -0.073 21.1 R 0.70 0.63 o 691 1.44 Yes Yes
2016VV3 O C K 2017-04-05.27263 1.000E-05 12:57:07.690 1.500E-01 0.500 F 0.119 -0.227 +04° 10' 48.70" 1.000E-01 0.500 F 0.250 -0.082 20.8 R 0.70 0.33 o 691 0.48 Yes Yes
2017GH4 O C K 2017-04-05.29952 1.000E-05 12:18:17.480 1.500E-01 0.500 F 0.242 -0.021 -15° 08' 50.40" 1.000E-01 0.500 F -0.010 0.073 o 691 0.17 Yes No
2017EV2 O C K 2017-04-05.30369 1.000E-05 12:50:09.140 1.500E-01 0.500 F 0.101 -0.284 -18° 22' 03.30" 1.000E-01 0.500 F -0.092 0.076 20.8 R 0.70 0.33 o 691 0.59 Yes Yes
2017GH4 O C K 2017-04-05.32506 1.000E-05 12:18:26.070 1.500E-01 0.500 F 0.242 0.045 -15° 07' 50.10" 1.000E-01 0.500 F -0.010 -0.165 o 691 0.38 Yes No
2017EV2 O C K 2017-04-05.32923 1.000E-05 12:50:02.710 1.500E-01 0.500 F 0.101 -0.239 -18° 21' 52.70" 1.000E-01 0.500 F -0.092 -0.388 21.0 R 0.70 0.53 o 691 0.92 Yes Yes
2017GH4 O C K 2017-04-05.35059 1.000E-05 12:18:34.750 1.500E-01 0.500 F 0.242 1.501 -15° 06' 46.10" 1.000E-01 0.500 F -0.010 2.979 o 691 5.81 No No
2017EV2 O C K 2017-04-05.35476 1.000E-05 12:49:56.330 1.500E-01 0.500 F 0.118 0.375 -18° 21' 41.10" 1.000E-01 0.500 F -0.036 -0.051 21.5 R 0.70 1.03 o 691 0.77 Yes Yes
2017FE128 O C H 2017-04-05.40165 1.000E-05 13:28:22.480 1.500E-01 0.500 F 0.202 -0.436 +10° 59' 44.60" 1.000E-01 0.500 F 0.203 0.310 20.6 R 0.70 -0.22 o 691 1.07 Yes Yes
2017GM6 O C H 2017-04-05.40418 1.000E-05 13:29:53.170 1.500E-01 0.500 F 0.250 0.311 -06° 50' 26.30" 1.000E-01 0.500 F 0.013 1.139 20.6 R 0.70 0.53 o 691 2.54 Yes Yes
2017FE128 O C H 2017-04-05.41019 1.000E-05 13:28:20.720 1.500E-01 0.500 F 0.202 0.236 +10° 59' 31.20" 1.000E-01 0.500 F 0.203 -0.277 20.7 R 0.70 -0.12 o 691 0.73 Yes Yes
2017GM6 O C H 2017-04-05.41265 1.000E-05 13:29:52.900 1.500E-01 0.500 F 0.250 -0.787 -06° 49' 19.70" 1.000E-01 0.500 F 0.013 1.149 20.9 R 0.70 0.83 o 691 2.99 Yes Yes
2017FE128 O C H 2017-04-05.41867 1.000E-05 13:28:18.900 1.500E-01 0.500 F 0.202 -0.181 +10° 59' 18.90" 1.000E-01 0.500 F 0.203 0.163 20.8 R 0.70 -0.02 o 691 0.49 Yes Yes
2017GM6 O C H 2017-04-05.42113 1.000E-05 13:29:52.730 1.500E-01 0.500 F 0.250 -0.560 -06° 48' 16.10" 1.000E-01 0.500 F 0.013 -1.975 20.8 R 0.70 0.73 o 691 3.86 No Yes
2017FC157 O C H 2017-04-05.44180 1.000E-05 15:13:30.120 1.500E-01 0.500 F 0.125 -0.470 -13° 35' 56.40" 1.000E-01 0.500 F 0.130 -0.129 19.4 R 0.70 -0.18 o 691 0.98 Yes Yes
2017FC157 O C H 2017-04-05.44702 1.000E-05 15:13:30.960 1.500E-01 0.500 F 0.125 0.143 -13° 35' 11.70" 1.000E-01 0.500 F 0.130 0.286 19.4 R 0.70 -0.18 o 691 0.66 Yes Yes
2017FC157 O C H 2017-04-05.45222 1.000E-05 15:13:31.750 1.500E-01 0.500 F 0.125 0.060 -13° 34' 27.80" 1.000E-01 0.500 F 0.130 0.062 19.5 R 0.70 -0.08 o 691 0.18 Yes Yes
2016WO1 O C H 2017-04-05.49387 1.000E-05 17:48:00.920 1.500E-01 0.500 F 0.029 -0.011 +28° 50' 00.10" 1.000E-01 0.500 F 0.218 -0.158 o 691 0.33 Yes No
2016WO1 O C H 2017-04-05.49612 1.000E-05 17:48:00.280 1.500E-01 0.500 F 0.029 0.138 +28° 49' 50.10" 1.000E-01 0.500 F 0.218 -0.137 o 691 0.39 Yes No
2017FO2 O C K 2017-04-06.13359 1.000E-05 12:34:03.490 1.500E-01 0.500 F 0.218 0.299 +05° 31' 51.50" 1.000E-01 0.500 F 0.203 -0.188 21.1 R 0.70 1.20 o 691 0.71 Yes Yes
2017FH101 O C 2017-04-06.14295 1.000E-05 12:16:03.250 1.500E-01 0.500 F 0.195 -0.438 -08° 45' 09.40" 1.000E-01 0.500 F -0.104 -0.107 19.5 V 0.70 0.73 o 691 0.91 Yes Yes
2017FH101 O C 2017-04-06.15521 1.000E-05 12:16:04.500 1.500E-01 0.500 F 0.195 0.092 -08° 44' 25.40" 1.000E-01 0.500 F -0.104 -0.933 19.4 V 0.70 0.63 o 691 1.89 Yes Yes
2017FO2 O C K 2017-04-06.15815 1.000E-05 12:34:02.010 1.500E-01 0.500 F 0.218 -0.339 +05° 30' 50.30" 1.000E-01 0.500 F 0.203 -0.555 20.7 R 0.70 0.80 o 691 1.32 Yes Yes
2017FH101 O C 2017-04-06.16747 1.000E-05 12:16:05.680 1.500E-01 0.500 F 0.195 -0.176 -08° 43' 39.50" 1.000E-01 0.500 F -0.104 0.044 19.1 V 0.70 0.33 o 691 0.37 Yes Yes
2017FL102 O C K 2017-04-06.17458 1.000E-05 11:24:50.930 1.500E-01 0.500 F 0.303 -3.187 -26° 13' 19.80" 1.000E-01 0.500 F 0.228 0.408 o 691 6.34 No No
2017GL6 O C K 2017-04-06.18733 1.000E-05 11:31:51.280 1.500E-01 0.500 F 0.345 1.475 -26° 29' 07.50" 1.000E-01 0.500 F 0.278 -0.021 o 691 2.98 Yes No
2017FL102 O C K 2017-04-06.19930 1.000E-05 11:24:38.400 1.500E-01 0.500 F 0.303 -2.516 -26° 14' 06.40" 1.000E-01 0.500 F 0.228 -0.070 o 691 4.96 No No
2017GL6 O C K 2017-04-06.21208 1.000E-05 11:31:57.100 1.500E-01 0.500 F 0.345 1.823 -26° 27' 33.10" 1.000E-01 0.500 F 0.278 0.388 o 691 3.69 No No
2017GL6 O C K 2017-04-06.23681 1.000E-05 11:32:02.800 1.500E-01 0.500 F 0.345 1.012 -26° 25' 59.10" 1.000E-01 0.500 F 0.278 0.078 o 691 2.05 Yes No
2017GM4 O C 2017-04-06.26409 1.000E-05 12:32:14.000 1.500E-01 0.500 F 0.272 -0.027 -09° 36' 19.30" 1.000E-01 0.500 F 0.083 -0.032 18.8 V 0.70 0.21 o 691 0.08 Yes Yes
2000HO14 O C 2017-04-06.26409 1.000E-05 12:31:26.200 1.500E-01 0.500 F 0.272 -0.026 -09° 22' 02.60" 1.000E-01 0.500 F 0.083 0.101 19.3 V 0.70 0.42 o 691 0.21 Yes Yes
2017GM4 O C 2017-04-06.26999 1.000E-05 12:32:12.740 1.500E-01 0.500 F 0.272 -0.012 -09° 36' 09.40" 1.000E-01 0.500 F 0.083 -0.053 19.0 V 0.70 0.41 o 691 0.11 Yes Yes
2000HO14 O C 2017-04-06.26999 1.000E-05 12:31:25.820 1.500E-01 0.500 F 0.272 0.036 -09° 21' 58.20" 1.000E-01 0.500 F 0.083 0.282 19.3 V 0.70 0.42 o 691 0.57 Yes Yes
2017GM4 O C 2017-04-06.27597 1.000E-05 12:32:11.460 1.500E-01 0.500 F 0.272 -0.016 -09° 35' 59.30" 1.000E-01 0.500 F 0.083 -0.029 19.0 V 0.70 0.41 o 691 0.07 Yes Yes
2000HO14 O C 2017-04-06.27597 1.000E-05 12:31:25.420 1.500E-01 0.500 F 0.272 -0.118 -09° 21' 53.70" 1.000E-01 0.500 F 0.083 0.502 19.3 V 0.70 0.42 o 691 1.04 Yes Yes
2017FL128 O C K 2017-04-06.28302 1.000E-05 13:27:20.440 1.500E-01 0.500 F 0.279 -1.277 -30° 43' 51.50" 1.000E-01 0.500 F 0.335 -0.437 18.9 R 0.70 -0.66 o 691 2.82 Yes Yes
2017FL128 O C K 2017-04-06.28875 1.000E-05 13:27:17.510 1.500E-01 0.500 F 0.279 -1.390 -30° 44' 03.30" 1.000E-01 0.500 F 0.335 -0.161 18.4 R 0.70 -1.16 o 691 2.93 Yes Yes
2017FL128 O C K 2017-04-06.29458 1.000E-05 13:27:14.610 1.500E-01 0.500 F 0.279 -0.444 -30° 44' 15.20" 1.000E-01 0.500 F 0.335 0.192 18.9 R 0.70 -0.66 o 691 1.01 Yes Yes
2017FD65 O C K 2017-04-06.31230 1.000E-05 13:13:45.700 1.500E-01 0.500 F 0.183 -0.508 +03° 08' 16.70" 1.000E-01 0.500 F 0.193 0.161 19.1 R 0.70 -0.61 o 691 1.07 Yes Yes
2017FJ90 O C 2017-04-06.31946 1.000E-05 13:35:11.790 1.500E-01 0.500 F 0.135 0.077 +01° 46' 01.40" 1.000E-01 0.500 F 0.156 -0.133 o 691 0.31 Yes No
2017FD65 O C K 2017-04-06.32501 1.000E-05 13:13:46.280 1.500E-01 0.500 F 0.183 -0.318 +03° 08' 59.10" 1.000E-01 0.500 F 0.193 0.150 18.8 R 0.70 -0.91 o 691 0.71 Yes Yes
2017FJ90 O C 2017-04-06.33213 1.000E-05 13:35:10.850 1.500E-01 0.500 F 0.135 -0.416 +01° 46' 37.00" 1.000E-01 0.500 F 0.156 0.257 o 691 0.98 Yes No
2017FD65 O C K 2017-04-06.33769 1.000E-05 13:13:46.840 1.500E-01 0.500 F 0.183 -0.416 +03° 09' 41.60" 1.000E-01 0.500 F 0.193 0.342 18.6 R 0.70 -1.11 o 691 1.08 Yes Yes
2017FJ90 O C 2017-04-06.34481 1.000E-05 13:35:09.950 1.500E-01 0.500 F 0.135 -0.292 +01° 47' 11.10" 1.000E-01 0.500 F 0.156 -0.887 o 691 1.87 Yes No
2017GS5 O C 2017-04-06.35366 1.000E-05 15:12:47.400 1.500E-01 0.612 F 0.293 0.759 -30° 05' 32.60" 1.000E-01 0.612 F 0.438 0.527 20.0 V 0.70 0.49 o 691 1.53 Yes Yes
2017GS5 O C 2017-04-06.35522 1.000E-05 15:12:48.760 1.500E-01 0.612 F 0.293 2.475 -30° 05' 20.80" 1.000E-01 0.612 F 0.438 0.926 o 691 4.27 No No
2017GS5 O C 2017-04-06.35679 1.000E-05 15:12:49.780 1.500E-01 0.612 F 0.293 -0.319 -30° 05' 10.20" 1.000E-01 0.612 F 0.438 0.044 o 691 0.53 Yes No
2017FC157 O C 2017-04-06.37383 1.000E-05 15:16:12.680 1.500E-01 0.500 F 0.171 0.004 -11° 26' 14.60" 1.000E-01 0.500 F 0.246 -0.063 20.3 V 0.70 0.30 o 691 0.13 Yes Yes
2017FC157 O C 2017-04-06.37539 1.000E-05 15:16:12.830 1.500E-01 0.500 F 0.171 -1.022 -11° 26' 01.60" 1.000E-01 0.500 F 0.246 0.118 19.8 V 0.70 -0.20 o 691 2.07 Yes Yes
2017FO90 O C 2017-04-06.37782 1.000E-05 15:52:46.210 1.500E-01 0.559 F 0.220 0.286 -23° 44' 39.90" 1.000E-01 0.559 F 0.209 -0.340 19.6 R 0.70 -0.01 o 691 0.80 Yes Yes
2017FC157 O C 2017-04-06.38025 1.000E-05 15:16:13.590 1.500E-01 0.500 F 0.171 0.093 -11° 25' 21.90" 1.000E-01 0.500 F 0.246 -0.122 20.0 V 0.70 0.00 o 691 0.31 Yes Yes
2017FO90 O C 2017-04-06.38415 1.000E-05 15:52:47.950 1.500E-01 0.559 F 0.220 1.475 -23° 44' 43.30" 1.000E-01 0.559 F 0.209 -0.266 20.2 R 0.70 0.59 o 691 2.71 Yes Yes
2017FO90 O C H 2017-04-06.39364 1.000E-05 15:52:50.290 1.500E-01 0.559 F 0.220 -0.401 -23° 44' 48.20" 1.000E-01 0.559 F 0.209 0.001 o 691 0.72 Yes No
2017FO90 O C H 2017-04-06.39659 1.000E-05 15:52:51.180 1.500E-01 0.559 F 0.220 1.255 -23° 44' 49.90" 1.000E-01 0.559 F 0.209 -0.103 o 691 2.27 Yes No
2017FO90 O C H 2017-04-06.39955 1.000E-05 15:52:51.900 1.500E-01 0.559 F 0.220 0.543 -23° 44' 51.20" 1.000E-01 0.559 F 0.209 0.193 o 691 1.04 Yes No
2016WO1 O C 2017-04-06.40748 1.000E-05 17:43:54.190 1.500E-01 0.500 F 0.030 0.003 +27° 41' 43.40" 1.000E-01 0.500 F 0.177 -0.221 19.1 V 0.70 0.00 o 691 0.45 Yes Yes
2016WO1 O C 2017-04-06.40938 1.000E-05 17:43:53.680 1.500E-01 0.500 F 0.030 0.369 +27° 41' 34.90" 1.000E-01 0.500 F 0.177 -0.294 18.9 V 0.70 -0.20 o 691 0.95 Yes Yes
2016WO1 O C 2017-04-06.41129 1.000E-05 17:43:53.110 1.500E-01 0.500 F 0.030 -0.022 +27° 41' 26.30" 1.000E-01 0.500 F 0.177 -0.421 19.1 V 0.70 0.00 o 691 0.87 Yes Yes
2017GS6 O C H 2017-04-06.42298 1.000E-05 13:13:46.820 1.500E-01 0.500 F 0.367 -0.361 -15° 40' 56.10" 1.000E-01 0.500 F 0.057 -0.423 19.9 R 0.70 0.75 o 691 1.14 Yes Yes
2017GS6 O C H 2017-04-06.42443 1.000E-05 13:13:47.000 1.500E-01 0.500 F 0.367 -0.379 -15° 40' 37.70" 1.000E-01 0.500 F 0.057 -1.240 19.7 R 0.70 0.55 o 691 2.65 Yes Yes
2017GS6 O C H 2017-04-06.42589 1.000E-05 13:13:47.220 1.500E-01 0.500 F 0.367 0.157 -15° 40' 17.00" 1.000E-01 0.500 F 0.057 0.106 19.7 R 0.70 0.55 o 691 0.39 Yes Yes
2017GS5 O C 2017-04-06.43399 1.000E-05 15:13:50.360 1.500E-01 0.612 F 0.293 0.345 -29° 55' 36.20" 1.000E-01 0.612 F 0.438 0.528 19.6 R 0.70 0.49 o 691 1.04 Yes Yes
2017GS5 O C 2017-04-06.43544 1.000E-05 15:13:51.460 1.500E-01 0.612 F 0.293 -0.128 -29° 55' 25.50" 1.000E-01 0.612 F 0.438 0.288 18.6 R 0.70 -0.51 o 691 0.52 Yes Yes
2017GS5 O C 2017-04-06.43690 1.000E-05 15:13:52.700 1.500E-01 0.612 F 0.293 1.116 -29° 55' 15.00" 1.000E-01 0.612 F 0.438 -0.233 o 691 1.88 Yes No
2017GL7 O C K 2017-04-07.27631 1.000E-05 12:19:07.020 1.500E-01 0.500 F 0.170 -0.510 -18° 59' 29.20" 1.000E-01 0.500 F -0.021 -0.565 20.2 R 0.70 0.73 o 691 1.56 Yes Yes
2017GL7 O C K 2017-04-07.27926 1.000E-05 12:19:06.810 1.500E-01 0.500 F 0.170 0.040 -18° 59' 20.00" 1.000E-01 0.500 F -0.021 -0.605 20.0 R 0.70 0.53 o 691 1.24 Yes Yes
2017GL7 O C K 2017-04-07.28222 1.000E-05 12:19:06.560 1.500E-01 0.500 F 0.170 0.034 -18° 59' 09.70" 1.000E-01 0.500 F -0.021 0.420 19.9 R 0.70 0.43 o 691 0.86 Yes Yes
2017FL128 O C K 2017-04-07.31275 1.000E-05 13:18:53.910 1.500E-01 0.500 F 0.276 -1.030 -31° 17' 44.90" 1.000E-01 0.500 F 0.308 0.062 o 691 2.18 Yes No
2017FL128 O C K 2017-04-07.32805 1.000E-05 13:18:45.980 1.500E-01 0.500 F 0.276 -2.536 -31° 18' 13.90" 1.000E-01 0.500 F 0.308 -0.255 o 691 4.86 No No
2010GA7 O C K 2017-04-07.36512 1.000E-05 14:18:24.790 1.500E-01 0.500 F 0.269 -0.189 -09° 34' 32.60" 1.000E-01 0.500 F -0.168 0.149 17.5 R 0.70 -0.95 o 691 0.49 Yes Yes
2010GA7 O C K 2017-04-07.36980 1.000E-05 14:18:21.960 1.500E-01 0.500 F 0.269 0.051 -09° 34' 52.20" 1.000E-01 0.500 F -0.168 -0.106 17.5 R 0.70 -0.95 o 691 0.24 Yes Yes
2010GA7 O C K 2017-04-07.37450 1.000E-05 14:18:19.100 1.500E-01 0.500 F 0.269 0.026 -09° 35' 11.30" 1.000E-01 0.500 F -0.168 0.214 17.4 R 0.70 -1.05 o 691 0.44 Yes Yes
2017GU6 O C K 2017-04-07.38355 1.000E-05 15:14:02.900 1.500E-01 0.500 F 0.097 -0.377 -01° 48' 03.60" 1.000E-01 0.500 F 0.129 0.182 19.6 R 0.70 -0.55 o 691 0.84 Yes Yes
2017GU6 O C K 2017-04-07.39084 1.000E-05 15:14:03.200 1.500E-01 0.500 F 0.097 -0.296 -01° 48' 07.90" 1.000E-01 0.500 F 0.129 0.214 19.9 R 0.70 -0.25 o 691 0.73 Yes Yes
2017GU6 O C K 2017-04-07.39814 1.000E-05 15:14:03.520 1.500E-01 0.500 F 0.097 0.084 -01° 48' 12.10" 1.000E-01 0.500 F 0.129 0.352 19.9 R 0.70 -0.25 o 691 0.73 Yes Yes
2014NZ64 O C 2017-04-07.44547 1.000E-05 14:27:46.180 1.500E-01 0.500 F 0.322 -0.255 +08° 56' 41.00" 1.000E-01 0.500 F 0.332 -0.092 19.7 V 0.70 -0.01 o 691 0.56 Yes Yes
2014NZ64 O C 2017-04-07.45225 1.000E-05 14:27:44.200 1.500E-01 0.500 F 0.322 -0.510 +08° 56' 50.90" 1.000E-01 0.500 F 0.332 -0.291 19.7 V 0.70 -0.01 o 691 1.21 Yes Yes
2014NZ64 O C 2017-04-07.45902 1.000E-05 14:27:42.270 1.500E-01 0.500 F 0.322 -0.121 +08° 57' 01.10" 1.000E-01 0.500 F 0.332 -0.157 19.8 V 0.70 0.09 o 691 0.41 Yes Yes
2017GV6 O C K 2017-04-08.25100 1.000E-05 14:56:59.270 1.500E-01 0.500 F 0.149 -1.834 +15° 05' 51.70" 1.000E-01 0.500 F 0.291 -0.284 18.6 R 0.70 -1.29 o 691 3.60 No Yes
2017GV6 O C K 2017-04-08.25885 1.000E-05 14:56:54.650 1.500E-01 0.500 F 0.149 -1.389 +15° 04' 58.70" 1.000E-01 0.500 F 0.291 -0.545 18.0 R 0.70 -1.88 o 691 3.08 Yes Yes
2017GU6 O C K 2017-04-08.30291 1.000E-05 15:14:46.700 1.500E-01 0.500 F 0.097 0.425 -01° 57' 22.00" 1.000E-01 0.500 F 0.129 -0.123 o 691 0.89 Yes No
2017GU6 O C K 2017-04-08.31749 1.000E-05 15:14:47.260 1.500E-01 0.500 F 0.097 0.064 -01° 57' 31.10" 1.000E-01 0.500 F 0.129 -0.143 o 691 0.32 Yes No
2017GU6 O C K 2017-04-08.33208 1.000E-05 15:14:47.830 1.500E-01 0.500 F 0.097 -0.074 -01° 57' 40.10" 1.000E-01 0.500 F 0.129 -0.056 o 691 0.19 Yes No
2017GW6 O C K 2017-04-08.34703 1.000E-05 15:34:26.420 1.500E-01 0.500 F 0.044 0.307 +00° 18' 10.90" 1.000E-01 0.500 F 0.197 -0.149 o 691 0.69 Yes No
2017GW6 O C K 2017-04-08.35608 1.000E-05 15:34:24.100 1.500E-01 0.500 F 0.044 0.247 +00° 17' 53.90" 1.000E-01 0.500 F 0.197 -0.268 o 691 0.74 Yes No
2017GW6 O C K 2017-04-08.36512 1.000E-05 15:34:21.780 1.500E-01 0.500 F 0.044 0.186 +00° 17' 37.10" 1.000E-01 0.500 F 0.197 -0.203 o 691 0.56 Yes No
2017GS5 O C K 2017-04-08.37503 1.000E-05 15:40:20.900 1.500E-01 0.500 F 0.250 0.927 -25° 39' 07.90" 1.000E-01 0.500 F 0.476 0.049 18.7 R 0.70 -0.43 o 691 1.89 Yes Yes
2017GS5 O C K 2017-04-08.37817 1.000E-05 15:40:23.160 1.500E-01 0.500 F 0.250 0.389 -25° 38' 42.60" 1.000E-01 0.500 F 0.476 -0.510 19.2 R 0.70 0.07 o 691 1.30 Yes Yes
2017GS5 O C K 2017-04-08.38130 1.000E-05 15:40:25.340 1.500E-01 0.500 F 0.250 -1.117 -25° 38' 18.10" 1.000E-01 0.500 F 0.476 -1.810 19.5 R 0.70 0.37 o 691 4.17 No Yes
2005UP156 O C 2017-04-08.39071 1.000E-05 15:17:04.520 1.500E-01 0.500 F 0.223 -0.177 -14° 48' 52.00" 1.000E-01 0.500 F 0.039 -0.014 17.6 V 0.70 -0.11 o 691 0.36 Yes Yes
2005UP156 O C 2017-04-08.39438 1.000E-05 15:17:04.710 1.500E-01 0.500 F 0.223 -0.182 -14° 48' 50.60" 1.000E-01 0.500 F 0.039 0.003 17.6 V 0.70 -0.11 o 691 0.36 Yes Yes
2005UP156 O C 2017-04-08.39805 1.000E-05 15:17:04.930 1.500E-01 0.500 F 0.223 0.249 -14° 48' 49.00" 1.000E-01 0.500 F 0.039 0.218 19.2 V 0.70 1.49 o 691 0.66 Yes Yes
2017AP20 O C H 2017-04-15.15684 1.000E-05 11:43:12.070 1.500E-01 0.500 F 0.105 -0.072 +22° 15' 19.70" 1.000E-01 0.500 F 0.278 -0.026 20.7 R 0.70 0.03 o 691 0.16 Yes Yes
2017AP20 O C H 2017-04-15.17272 1.000E-05 11:43:11.240 1.500E-01 0.500 F 0.105 -0.100 +22° 15' 10.70" 1.000E-01 0.500 F 0.278 -0.337 20.4 R 0.70 -0.27 o 691 0.71 Yes Yes
2017AP20 O C H 2017-04-15.18855 1.000E-05 11:43:10.410 1.500E-01 0.500 F 0.105 -0.154 +22° 15' 02.70" 1.000E-01 0.500 F 0.278 0.347 20.8 R 0.70 0.13 o 691 0.76 Yes Yes
2017FO2 O C 2017-04-16.17700 1.000E-05 12:26:17.470 1.500E-01 0.500 F 0.237 -0.064 -01° 50' 49.10" 1.000E-01 0.500 F 0.199 -1.280 20.6 V 0.70 0.17 o 691 2.60 Yes Yes
2017FO2 O C 2017-04-16.19292 1.000E-05 12:26:16.670 1.500E-01 0.500 F 0.237 -0.744 -01° 51' 32.10" 1.000E-01 0.500 F 0.199 -0.611 20.5 V 0.70 0.07 o 691 1.96 Yes Yes
2017FO2 O C 2017-04-16.20903 1.000E-05 12:26:15.930 1.500E-01 0.500 F 0.237 -0.291 -01° 52' 15.50" 1.000E-01 0.500 F 0.199 0.172 20.5 V 0.70 0.07 o 691 0.69 Yes Yes
2017FJ90 O C 2017-04-16.22676 1.000E-05 13:22:44.290 1.500E-01 0.500 F 0.142 -0.443 +09° 51' 19.60" 1.000E-01 0.500 F 0.153 0.338 19.8 V 0.70 -0.09 o 691 1.12 Yes Yes
2017FD65 O C H 2017-04-16.22971 1.000E-05 13:24:54.880 1.500E-01 0.500 F 0.141 -0.519 +12° 51' 45.60" 1.000E-01 0.500 F 0.164 -0.516 20.5 R 0.70 0.62 o 691 1.48 Yes Yes
2017FJ90 O C 2017-04-16.23266 1.000E-05 13:22:43.790 1.500E-01 0.500 F 0.142 -0.234 +09° 51' 37.00" 1.000E-01 0.500 F 0.153 -0.213 19.8 V 0.70 -0.09 o 691 0.64 Yes Yes
2017FD65 O C H 2017-04-16.23562 1.000E-05 13:24:55.250 1.500E-01 0.500 F 0.141 -0.249 +12° 52' 07.60" 1.000E-01 0.500 F 0.164 -0.015 20.1 R 0.70 0.22 o 691 0.50 Yes Yes

[1-200] [201-400] [401-600] [601-800] [801-1000] [1001-1200] [1201-1400] [1401-1600] [1601-1800] [1801-2000] [2001-2200] [2201-2400] [2401-2600] [2601-2800] [2801-3000] [3001-3200] [3201-3400] [3401-3600] [3601-3800] [3801-4000] [4001-4200] [4201-4400] [4401-4600] [4601-4800] [4801-5000] [5001-5200] [5201-5400] [5401-5600] [5601-5800] [5801-6000] [6001-6200] [6201-6400] [6401-6600] [6601-6800] [6801-7000] [7001-7200] [7201-7400] [7401-7600] [7601-7800] [7801-8000] [8001-8200] [8201-8400] [8401-8600] [8601-8800] [8801-9000] [9001-9200] [9201-9400] [9401-9600] [9601-9800] [9801-10000] [10001-10200] [10201-10400] [10401-10600] [10601-10800] [10801-11000] [11001-11200] [11201-11400] [11401-11600] [11601-11800] [11801-12000] [12001-12200] [12201-12400] [12401-12600] [12601-12800] [12801-13000] [13001-13200] [13201-13400] [13401-13600] [13601-13800] [13801-14000] [14001-14200] [14201-14400] [14401-14600] [14601-14800] [14801-15000] [15001-15200] [15201-15400] [15401-15600] [15601-15800] [15801-16000] [16001-16200] [16201-16400] [16401-16600] [16601-16800] [16801-17000] [17001-17200] [17201-17400] [17401-17600] [17601-17800] [17801-18000] [18001-18200] [18201-18400] [18401-18600] [18601-18800] [18801-19000] [19001-19200] [19201-19400] [19401-19600] [19601-19800] [19801-20000] [20001-20200] [20201-20400] [20401-20600] [20601-20800] [20801-21000] [21001-21200] [21201-21400] [21401-21600] [21601-21800] [21801-22000] [22001-22200] [22201-22400] [22401-22600] [22601-22800] [22801-23000] [23001-23200] [23201-23400] [23401-23600] [23601-23800] [23801-24000] [24001-24200] [24201-24400] [24401-24600] [24601-24800] [24801-25000] [25001-25200] [25201-25400] [25401-25600] [25601-25800] [25801-26000] [26001-26200] [26201-26400] [26401-26600] [26601-26800] [26801-27000] [27001-27200] [27201-27400] [27401-27600] [27601-27800] [27801-28000] [28001-28200] [28201-28400] [28401-28600] [28601-28800] [28801-29000] [29001-29200] [29201-29400] [29401-29600] [29601-29800] [29801-30000] [30001-30200] [30201-30400] [30401-30600] [30601-30800] [30801-31000] [31001-31200] [31201-31400] [31401-31600] [31601-31800] [31801-32000] [32001-32200] [32201-32400] [32401-32600] [32601-32800] [32801-33000] [33001-33200] [33201-33400] [33401-33600] [33601-33800] [33801-34000] [34001-34200] [34201-34400] [34401-34600] [34601-34800] [34801-35000] [35001-35200] [35201-35400] [35401-35600] [35601-35800] [35801-36000] [36001-36200] [36201-36400] [36401-36600] [36601-36800] [36801-37000] [37001-37200] [37201-37400] [37401-37600] [37601-37800] [37801-38000] [38001-38200] [38201-38400] [38401-38600] [38601-38800] [38801-39000] [39001-39200] [39201-39400] [39401-39600] [39601-39800] [39801-40000] [40001-40200] [40201-40400] [40401-40600] [40601-40800] [40801-41000] [41001-41200] [41201-41400] [41401-41600] [41601-41800] [41801-42000] [42001-42200] [42201-42400] [42401-42600] [42601-42800] [42801-43000] [43001-43200] [43201-43400] [43401-43600] [43601-43800] [43801-44000] [44001-44200] [44201-44400] [44401-44600] [44601-44800] [44801-45000] [45001-45200] [45201-45400] [45401-45600] [45601-45800] [45801-46000] [46001-46200] [46201-46400] [46401-46600] [46601-46800] [46801-47000] [47001-47200] [47201-47400] [47401-47600] [47601-47800] [47801-48000] [48001-48200] [48201-48400] [48401-48600] [48601-48800] [48801-49000] [49001-49200] [49201-49400] [49401-49600] [49601-49800] [49801-50000] [50001-50200] [50201-50388]